createdAt,value
2023-05-06T00:01:45.817Z,4.90
2023-05-06T00:03:48.824Z,5.13
2023-05-06T00:05:51.912Z,4.33
2023-05-06T00:07:56.094Z,4.87
2023-05-06T00:09:58.857Z,5.13
2023-05-06T00:12:01.653Z,4.87
2023-05-06T00:14:04.531Z,5.23
2023-05-06T00:16:07.632Z,5.20
2023-05-06T00:18:10.554Z,4.87
2023-05-06T00:20:14.743Z,6.13
2023-05-06T00:22:17.585Z,8.73
2023-05-06T00:24:21.721Z,10.63
2023-05-06T00:26:24.501Z,10.67
2023-05-06T00:28:27.425Z,10.27
2023-05-06T00:30:31.274Z,10.20
2023-05-06T00:32:34.164Z,10.33
2023-05-06T00:34:37.261Z,10.70
2023-05-06T00:36:40.169Z,11.40
2023-05-06T00:38:43.022Z,9.83
2023-05-06T00:40:47.191Z,10.13
2023-05-06T00:42:50.013Z,10.70
2023-05-06T00:44:53.387Z,10.03
2023-05-06T00:46:57.052Z,9.80
2023-05-06T00:48:59.989Z,10.03
2023-05-06T00:51:02.936Z,10.47
2023-05-06T00:53:06.921Z,10.13
2023-05-06T00:55:10.704Z,10.23
2023-05-06T00:57:15.020Z,9.47
2023-05-06T00:59:17.911Z,10.23
2023-05-06T01:01:22.796Z,10.23
2023-05-06T01:03:25.998Z,8.97
2023-05-06T01:05:41.429Z,10.33
2023-05-06T01:07:52.481Z,10.40
2023-05-06T01:10:03.526Z,9.30
2023-05-06T01:12:10.481Z,9.83
2023-05-06T01:14:26.791Z,10.93
2023-05-06T01:16:31.808Z,9.43
2023-05-06T01:18:34.746Z,10.83
2023-05-06T01:20:38.735Z,10.80
2023-05-06T01:22:41.768Z,10.83
2023-05-06T01:24:46.999Z,11.93
2023-05-06T01:26:49.815Z,15.43
2023-05-06T01:28:52.593Z,10.73
2023-05-06T01:31:01.269Z,11.90
2023-05-06T01:33:08.579Z,11.27
2023-05-06T01:35:18.238Z,15.40
2023-05-06T01:37:26.623Z,16.77
2023-05-06T01:39:32.646Z,15.90
2023-05-06T01:41:39.831Z,18.33
2023-05-06T01:43:45.238Z,14.93
2023-05-06T01:45:53.419Z,16.57
2023-05-06T01:47:57.852Z,18.00
2023-05-06T01:50:01.145Z,16.50
2023-05-06T01:52:04.199Z,15.30
2023-05-06T01:54:07.149Z,17.30
2023-05-06T01:56:09.961Z,14.27
2023-05-06T01:58:14.155Z,19.73
2023-05-06T02:00:17.483Z,18.60
2023-05-06T02:02:20.421Z,18.70
2023-05-06T02:04:23.200Z,17.37
2023-05-06T02:06:26.055Z,14.90
2023-05-06T02:08:29.239Z,15.67
2023-05-06T02:10:32.096Z,18.13
2023-05-06T02:12:34.984Z,17.80
2023-05-06T02:14:39.239Z,16.10
2023-05-06T02:16:42.022Z,15.63
2023-05-06T02:18:45.840Z,17.17
2023-05-06T02:20:48.692Z,15.93
2023-05-06T02:22:51.495Z,18.47
2023-05-06T02:24:54.223Z,17.90
2023-05-06T02:26:57.063Z,19.87
2023-05-06T02:28:59.867Z,22.33
2023-05-06T02:31:04.086Z,19.17
2023-05-06T02:33:06.929Z,21.77
2023-05-06T02:35:10.775Z,18.07
2023-05-06T02:37:13.861Z,22.00
2023-05-06T02:39:16.671Z,23.77
2023-05-06T02:41:19.488Z,19.00
2023-05-06T02:43:23.079Z,16.27
2023-05-06T02:45:25.948Z,17.93
2023-05-06T02:47:30.207Z,23.07
2023-05-06T02:49:33.091Z,18.53
2023-05-06T02:51:36.388Z,15.20
2023-05-06T02:53:39.160Z,18.33
2023-05-06T02:55:42.101Z,18.00
2023-05-06T02:57:44.877Z,19.33
2023-05-06T02:59:47.674Z,16.53
2023-05-06T03:01:50.507Z,18.40
2023-05-06T03:03:54.700Z,16.83
2023-05-06T03:05:57.523Z,14.53
2023-05-06T03:08:00.513Z,18.27
2023-05-06T03:10:04.042Z,17.37
2023-05-06T03:12:07.305Z,15.27
2023-05-06T03:14:10.149Z,14.50
2023-05-06T03:16:14.217Z,14.47
2023-05-06T03:18:16.989Z,14.10
2023-05-06T03:20:21.670Z,11.87
2023-05-06T03:22:24.501Z,12.67
2023-05-06T03:24:27.344Z,14.10
2023-05-06T03:26:30.601Z,13.10
2023-05-06T03:28:33.576Z,13.77
2023-05-06T03:30:36.415Z,13.37
2023-05-06T03:32:39.643Z,13.90
2023-05-06T03:34:42.470Z,14.17
2023-05-06T03:36:46.776Z,13.00
2023-05-06T03:38:49.566Z,11.17
2023-05-06T03:40:52.428Z,11.13
2023-05-06T03:42:55.256Z,11.03
2023-05-06T03:44:58.052Z,12.60
2023-05-06T03:47:00.968Z,12.87
2023-05-06T03:49:03.771Z,11.40
2023-05-06T03:51:06.830Z,11.93
2023-05-06T03:53:11.155Z,10.43
2023-05-06T03:55:13.956Z,11.87
2023-05-06T03:57:16.781Z,10.83
2023-05-06T03:59:19.598Z,9.10
2023-05-06T04:01:22.501Z,11.47
2023-05-06T04:03:25.372Z,10.70
2023-05-06T04:05:28.291Z,11.10
2023-05-06T04:07:31.087Z,12.53
2023-05-06T04:09:35.234Z,13.33
2023-05-06T04:11:38.054Z,13.00
2023-05-06T04:13:41.012Z,12.73
2023-05-06T04:15:43.956Z,12.83
2023-05-06T04:17:49.224Z,13.90
2023-05-06T04:19:53.831Z,14.57
2023-05-06T04:21:56.637Z,11.50
2023-05-06T04:23:59.414Z,13.33
2023-05-06T04:26:03.532Z,13.40
2023-05-06T04:28:06.667Z,13.33
2023-05-06T04:30:10.621Z,12.17
2023-05-06T04:32:13.651Z,12.47
2023-05-06T04:34:16.620Z,11.03
2023-05-06T04:36:19.756Z,11.37
2023-05-06T04:38:23.656Z,11.47
2023-05-06T04:40:28.563Z,11.77
2023-05-06T04:42:34.023Z,11.50
2023-05-06T04:44:36.786Z,10.10
2023-05-06T04:46:39.595Z,10.50
2023-05-06T04:48:42.903Z,13.13
2023-05-06T04:50:46.631Z,12.10
2023-05-06T04:52:49.466Z,12.67
2023-05-06T04:54:52.242Z,10.00
2023-05-06T04:56:55.663Z,10.17
2023-05-06T04:58:59.766Z,11.40
2023-05-06T05:01:05.239Z,12.27
2023-05-06T05:03:08.241Z,9.87
2023-05-06T05:05:11.772Z,11.40
2023-05-06T05:07:14.814Z,10.70
2023-05-06T05:09:17.623Z,11.60
2023-05-06T05:11:20.431Z,11.70
2023-05-06T05:13:23.180Z,11.10
2023-05-06T05:15:27.323Z,9.90
2023-05-06T05:17:30.198Z,11.67
2023-05-06T05:19:33.021Z,10.77
2023-05-06T05:21:35.768Z,10.30
2023-05-06T05:23:38.669Z,9.30
2023-05-06T05:25:41.730Z,10.70
2023-05-06T05:27:44.766Z,10.57
2023-05-06T05:29:47.580Z,9.40
2023-05-06T05:31:51.681Z,8.33
2023-05-06T05:33:54.549Z,9.07
2023-05-06T05:35:58.400Z,9.00
2023-05-06T05:38:01.191Z,7.90
2023-05-06T05:40:04.592Z,7.93
2023-05-06T05:42:07.399Z,9.03
2023-05-06T05:44:10.270Z,7.93
2023-05-06T05:46:13.265Z,7.83
2023-05-06T05:48:17.491Z,7.80
2023-05-06T05:50:20.379Z,8.57
2023-05-06T05:52:23.172Z,7.50
2023-05-06T05:54:25.954Z,9.13
2023-05-06T05:56:28.747Z,9.23
2023-05-06T05:58:31.555Z,8.50
2023-05-06T06:00:34.371Z,9.23
2023-05-06T06:02:37.223Z,8.70
2023-05-06T06:04:41.458Z,8.43
2023-05-06T06:06:44.408Z,8.63
2023-05-06T06:08:47.207Z,8.40
2023-05-06T06:10:49.971Z,8.60
2023-05-06T06:12:52.879Z,7.77
2023-05-06T06:14:55.725Z,8.70
2023-05-06T06:16:58.686Z,9.07
2023-05-06T06:19:01.523Z,7.47
2023-05-06T06:21:06.067Z,7.43
2023-05-06T06:23:08.856Z,7.40
2023-05-06T06:25:11.803Z,6.80
2023-05-06T06:27:14.830Z,7.33
2023-05-06T06:29:17.618Z,7.87
2023-05-06T06:31:20.537Z,6.90
2023-05-06T06:33:23.385Z,7.67
2023-05-06T06:35:26.919Z,8.30
2023-05-06T06:37:31.084Z,6.83
2023-05-06T06:39:33.934Z,7.20
2023-05-06T06:41:36.688Z,7.03
2023-05-06T06:43:39.530Z,7.37
2023-05-06T06:45:42.343Z,7.60
2023-05-06T06:47:45.192Z,7.57
2023-05-06T06:49:48.066Z,7.83
2023-05-06T06:51:52.478Z,7.27
2023-05-06T06:53:56.882Z,5.80
2023-05-06T06:55:59.679Z,5.80
2023-05-06T06:58:02.567Z,6.23
2023-05-06T07:00:05.777Z,6.13
2023-05-06T07:02:08.586Z,6.33
2023-05-06T07:04:11.404Z,6.40
2023-05-06T07:06:14.198Z,6.40
2023-05-06T07:08:17.614Z,6.77
2023-05-06T07:10:22.006Z,6.70
2023-05-06T07:12:26.716Z,6.73
2023-05-06T07:14:29.493Z,6.17
2023-05-06T07:16:32.282Z,6.17
2023-05-06T07:18:35.228Z,6.10
2023-05-06T07:20:38.058Z,6.30
2023-05-06T07:22:41.355Z,6.33
2023-05-06T07:24:44.222Z,5.97
2023-05-06T07:26:48.634Z,6.27
2023-05-06T07:28:51.468Z,5.60
2023-05-06T07:30:54.473Z,6.13
2023-05-06T07:32:57.321Z,6.73
2023-05-06T07:35:00.591Z,7.10
2023-05-06T07:37:03.834Z,6.33
2023-05-06T07:39:06.837Z,6.17
2023-05-06T07:41:09.604Z,6.07
2023-05-06T07:43:13.714Z,5.70
2023-05-06T07:45:16.547Z,5.30
2023-05-06T07:47:28.053Z,5.30
2023-05-06T07:49:33.217Z,5.27
2023-05-06T07:51:36.143Z,5.70
2023-05-06T07:53:40.146Z,5.33
2023-05-06T07:55:42.893Z,4.87
2023-05-06T07:57:46.095Z,5.50
2023-05-06T07:59:51.473Z,6.00
2023-05-06T08:01:54.272Z,6.00
2023-05-06T08:03:57.095Z,5.70
2023-05-06T08:06:00.245Z,6.20
2023-05-06T08:08:03.152Z,6.10
2023-05-06T08:10:07.070Z,6.43
2023-05-06T08:12:09.889Z,6.30
2023-05-06T08:14:12.740Z,6.10
2023-05-06T08:16:17.151Z,5.47
2023-05-06T08:18:22.867Z,5.13
2023-05-06T08:20:26.181Z,4.80
2023-05-06T08:22:28.990Z,5.30
2023-05-06T08:24:31.804Z,4.27
2023-05-06T08:26:34.671Z,4.77
2023-05-06T08:28:37.477Z,4.83
2023-05-06T08:30:40.284Z,4.67
2023-05-06T08:32:44.666Z,4.83
2023-05-06T08:34:47.492Z,5.40
2023-05-06T08:36:50.495Z,4.20
2023-05-06T08:38:53.271Z,4.50
2023-05-06T08:40:58.561Z,3.77
2023-05-06T08:43:03.739Z,4.27
2023-05-06T08:45:08.159Z,4.20
2023-05-06T08:47:11.402Z,3.47
2023-05-06T08:49:16.348Z,3.93
2023-05-06T08:51:19.630Z,4.50
2023-05-06T08:53:22.992Z,4.03
2023-05-06T08:55:28.031Z,4.27
2023-05-06T08:57:32.164Z,4.27
2023-05-06T08:59:35.159Z,4.07
2023-05-06T09:01:38.661Z,3.70
2023-05-06T09:03:41.618Z,4.27
2023-05-06T09:05:45.830Z,4.33
2023-05-06T09:07:48.632Z,4.50
2023-05-06T09:09:52.465Z,4.13
2023-05-06T09:11:57.473Z,3.83
2023-05-06T09:14:12.144Z,3.60
2023-05-06T09:16:29.342Z,3.10
2023-05-06T09:18:32.794Z,3.70
2023-05-06T09:20:35.832Z,3.70
2023-05-06T09:22:40.686Z,4.00
2023-05-06T09:24:43.760Z,4.20
2023-05-06T09:26:48.145Z,3.03
2023-05-06T09:28:52.224Z,3.10
2023-05-06T09:30:55.531Z,3.27
2023-05-06T09:32:58.433Z,2.90
2023-05-06T09:35:01.729Z,2.80
2023-05-06T09:37:04.548Z,3.20
2023-05-06T09:39:09.811Z,2.80
2023-05-06T09:41:14.624Z,3.87
2023-05-06T09:43:17.386Z,2.90
2023-05-06T09:45:20.649Z,2.63
2023-05-06T09:47:24.862Z,2.97
2023-05-06T09:49:27.857Z,2.90
2023-05-06T09:51:32.503Z,2.60
2023-05-06T09:53:37.145Z,2.77
2023-05-06T09:55:42.295Z,2.70
2023-05-06T09:57:45.696Z,3.00
2023-05-06T09:59:49.337Z,2.60
2023-05-06T10:01:52.823Z,2.67
2023-05-06T10:03:56.271Z,2.50
2023-05-06T10:06:01.031Z,3.00
2023-05-06T10:08:04.813Z,2.87
2023-05-06T10:10:11.005Z,2.53
2023-05-06T10:12:15.497Z,2.50
2023-05-06T10:14:19.212Z,2.53
2023-05-06T10:16:22.791Z,2.07
2023-05-06T10:18:29.966Z,2.20
2023-05-06T10:20:36.508Z,3.33
2023-05-06T10:22:45.556Z,2.90
2023-05-06T10:24:57.119Z,1.80
2023-05-06T10:27:03.214Z,2.13
2023-05-06T10:29:10.137Z,2.20
2023-05-06T10:31:14.734Z,2.60
2023-05-06T10:33:18.185Z,2.70
2023-05-06T10:35:30.857Z,2.60
2023-05-06T10:37:35.410Z,2.50
2023-05-06T10:39:40.315Z,2.20
2023-05-06T10:41:44.871Z,2.00
2023-05-06T10:43:49.205Z,2.00
2023-05-06T10:46:03.972Z,2.43
2023-05-06T10:48:10.569Z,1.50
2023-05-06T10:50:21.096Z,1.50
2023-05-06T10:52:23.951Z,1.80
2023-05-06T10:54:26.734Z,1.73
2023-05-06T10:56:31.259Z,1.50
2023-05-06T10:58:37.303Z,1.30
2023-05-06T11:00:41.020Z,2.17
2023-05-06T11:02:47.572Z,1.60
2023-05-06T11:05:00.539Z,2.03
2023-05-06T11:07:09.332Z,1.80
2023-05-06T11:09:19.399Z,1.53
2023-05-06T11:11:54.471Z,1.40
2023-05-06T11:14:13.900Z,1.67
2023-05-06T11:16:48.050Z,1.50
2023-05-06T11:18:52.898Z,1.50
2023-05-06T11:21:38.703Z,1.20
2023-05-06T11:24:07.245Z,1.30
2023-05-06T11:26:11.476Z,1.70
2023-05-06T11:28:15.824Z,1.50
2023-05-06T11:30:18.604Z,1.40
2023-05-06T11:32:24.035Z,1.30
2023-05-06T11:34:29.658Z,1.30
2023-05-06T11:36:33.609Z,1.27
2023-05-06T11:38:43.439Z,1.40
2023-05-06T11:40:46.638Z,1.30
2023-05-06T11:42:49.376Z,1.50
2023-05-06T11:44:54.894Z,1.37
2023-05-06T11:46:59.023Z,1.40
2023-05-06T11:49:01.909Z,1.43
2023-05-06T11:51:06.094Z,1.13
2023-05-06T11:53:10.005Z,1.20
2023-05-06T11:55:12.901Z,1.50
2023-05-06T11:57:15.719Z,1.30
2023-05-06T11:59:19.749Z,1.60
2023-05-06T12:01:22.545Z,1.40
2023-05-06T12:03:26.830Z,1.40
2023-05-06T12:05:29.880Z,1.50
2023-05-06T12:07:34.131Z,1.73
2023-05-06T12:09:37.961Z,1.30
2023-05-06T12:11:44.328Z,1.50
2023-05-06T12:13:47.922Z,1.00
2023-05-06T12:15:51.087Z,1.10
2023-05-06T12:17:54.047Z,0.97
2023-05-06T12:19:57.811Z,1.07
2023-05-06T12:22:15.834Z,1.50
2023-05-06T12:24:28.147Z,1.10
2023-05-06T12:26:44.157Z,1.10
2023-05-06T12:28:47.092Z,1.00
2023-05-06T12:30:49.909Z,1.20
2023-05-06T12:33:03.092Z,1.20
2023-05-06T12:35:07.532Z,1.20
2023-05-06T12:37:10.457Z,1.03
2023-05-06T12:39:14.147Z,1.10
2023-05-06T12:41:18.296Z,1.10
2023-05-06T12:43:30.069Z,1.00
2023-05-06T12:45:33.078Z,0.70
2023-05-06T12:47:36.145Z,1.00
2023-05-06T12:49:49.710Z,0.90
2023-05-06T12:52:07.326Z,0.80
2023-05-06T12:54:30.734Z,0.73
2023-05-06T12:56:35.031Z,1.17
2023-05-06T12:58:39.602Z,0.90
2023-05-06T13:00:42.432Z,0.60
2023-05-06T13:02:45.565Z,0.80
2023-05-06T13:04:48.536Z,0.70
2023-05-06T13:06:51.809Z,0.90
2023-05-06T13:08:54.630Z,0.80
2023-05-06T13:10:57.544Z,0.80
2023-05-06T13:13:01.695Z,0.90
2023-05-06T13:15:05.449Z,0.80
2023-05-06T13:17:08.598Z,0.90
2023-05-06T13:19:21.123Z,0.90
2023-05-06T13:21:34.150Z,1.00
2023-05-06T13:23:38.110Z,0.80
2023-05-06T13:25:52.040Z,1.00
2023-05-06T13:28:05.063Z,0.80
2023-05-06T13:30:09.754Z,0.83
2023-05-06T13:32:12.816Z,0.90
2023-05-06T13:34:15.680Z,0.70
2023-05-06T13:36:18.575Z,1.10
2023-05-06T13:38:21.802Z,0.80
2023-05-06T13:40:24.789Z,1.00
2023-05-06T13:42:27.601Z,1.00
2023-05-06T13:44:32.228Z,0.90
2023-05-06T13:46:35.108Z,1.05
2023-05-06T13:48:37.887Z,0.75
2023-05-06T13:50:42.702Z,0.90
2023-05-06T13:52:45.459Z,1.05
2023-05-06T13:54:48.269Z,1.00
2023-05-06T13:56:51.179Z,0.90
2023-05-06T13:58:54.123Z,2.92
2023-05-06T14:00:58.268Z,0.83
2023-05-06T14:03:01.344Z,0.82
2023-05-06T14:05:04.491Z,0.80
2023-05-06T14:07:07.443Z,1.00
2023-05-06T14:09:11.805Z,1.05
2023-05-06T14:11:14.779Z,0.73
2023-05-06T14:13:17.597Z,0.90
2023-05-06T14:15:20.577Z,1.10
2023-05-06T14:17:24.746Z,0.90
2023-05-06T14:19:27.514Z,2.30
2023-05-06T14:21:30.594Z,0.85
2023-05-06T14:23:33.517Z,0.90
2023-05-06T14:25:36.758Z,0.93
2023-05-06T14:27:39.745Z,0.90
2023-05-06T14:29:43.121Z,0.80
2023-05-06T14:31:46.142Z,0.80
2023-05-06T14:33:50.317Z,0.90
2023-05-06T14:35:53.162Z,1.00
2023-05-06T14:37:56.082Z,1.02
2023-05-06T14:39:59.034Z,1.02
2023-05-06T14:42:01.891Z,0.90
2023-05-06T14:44:04.833Z,0.90
2023-05-06T14:46:08.015Z,0.88
2023-05-06T14:48:11.403Z,0.77
2023-05-06T14:50:15.591Z,0.90
2023-05-06T14:52:18.326Z,0.90
2023-05-06T14:54:21.167Z,0.90
2023-05-06T14:56:23.990Z,0.90
2023-05-06T14:58:26.823Z,0.98
2023-05-06T15:00:29.593Z,1.10
2023-05-06T15:02:32.542Z,0.90
2023-05-06T15:04:35.460Z,0.90
2023-05-06T15:06:39.624Z,1.00
2023-05-06T15:08:42.389Z,0.90
2023-05-06T15:10:45.314Z,1.00
2023-05-06T15:12:48.445Z,1.02
2023-05-06T15:14:51.279Z,1.13
2023-05-06T15:16:57.159Z,1.02
2023-05-06T15:19:00.012Z,1.00
2023-05-06T15:21:02.839Z,1.17
2023-05-06T15:23:07.009Z,1.30
2023-05-06T15:25:16.709Z,1.23
2023-05-06T15:27:22.432Z,1.30
2023-05-06T15:29:25.536Z,1.20
2023-05-06T15:31:28.338Z,1.50
2023-05-06T15:33:31.284Z,1.60
2023-05-06T15:35:34.084Z,1.20
2023-05-06T15:37:37.091Z,1.00
2023-05-06T15:39:41.164Z,1.00
2023-05-06T15:41:43.977Z,0.85
2023-05-06T15:43:46.873Z,0.90
2023-05-06T15:45:49.651Z,1.10
2023-05-06T15:47:52.657Z,0.80
2023-05-06T15:49:55.779Z,0.77
2023-05-06T15:52:00.666Z,0.85
2023-05-06T15:54:03.671Z,0.90
2023-05-06T15:56:17.725Z,1.00
2023-05-06T15:58:32.019Z,1.00
2023-05-06T16:00:34.866Z,1.10
2023-05-06T16:02:37.843Z,1.00
2023-05-06T16:04:41.142Z,1.10
2023-05-06T16:06:44.050Z,1.00
2023-05-06T16:08:46.867Z,1.05
2023-05-06T16:10:49.857Z,1.20
2023-05-06T16:12:54.494Z,1.52
2023-05-06T16:14:57.628Z,2.60
2023-05-06T16:17:00.622Z,1.30
2023-05-06T16:19:03.442Z,2.13
2023-05-06T16:21:07.539Z,1.80
2023-05-06T16:23:10.629Z,1.75
2023-05-06T16:25:13.553Z,1.10
2023-05-06T16:27:16.917Z,1.20
2023-05-06T16:29:21.089Z,2.58
2023-05-06T16:31:23.989Z,2.10
2023-05-06T16:33:26.839Z,3.33
2023-05-06T16:35:30.018Z,2.67
2023-05-06T16:37:32.753Z,2.33
2023-05-06T16:39:35.471Z,4.07
2023-05-06T16:41:38.258Z,3.65
2023-05-06T16:43:41.076Z,1.90
2023-05-06T16:45:45.800Z,1.60
2023-05-06T16:47:49.208Z,1.33
2023-05-06T16:49:52.000Z,1.60
2023-05-06T16:51:57.132Z,3.00
2023-05-06T16:53:59.937Z,1.30
2023-05-06T16:56:04.001Z,1.50
2023-05-06T16:58:06.794Z,3.25
2023-05-06T17:00:11.970Z,1.10
2023-05-06T17:02:16.395Z,1.50
2023-05-06T17:04:19.270Z,1.33
2023-05-06T17:06:24.640Z,1.40
2023-05-06T17:08:27.533Z,1.30
2023-05-06T17:10:30.438Z,1.40
2023-05-06T17:12:33.608Z,1.20
2023-05-06T17:14:36.728Z,1.20
2023-05-06T17:16:39.818Z,1.30
2023-05-06T17:18:44.026Z,1.95
2023-05-06T17:20:54.984Z,1.70
2023-05-06T17:22:58.317Z,1.60
2023-05-06T17:25:01.099Z,1.65
2023-05-06T17:27:04.279Z,1.63
2023-05-06T17:29:08.650Z,1.52
2023-05-06T17:31:11.972Z,1.30
2023-05-06T17:33:14.819Z,1.52
2023-05-06T17:35:20.179Z,1.70
2023-05-06T17:37:22.986Z,1.52
2023-05-06T17:39:26.493Z,1.40
2023-05-06T17:41:29.431Z,1.60
2023-05-06T17:43:33.640Z,1.52
2023-05-06T17:45:36.564Z,1.65
2023-05-06T17:47:39.475Z,1.70
2023-05-06T17:49:42.798Z,1.80
2023-05-06T17:51:47.566Z,2.43
2023-05-06T17:53:50.509Z,2.37
2023-05-06T17:55:53.328Z,2.20
2023-05-06T17:57:56.143Z,2.33
2023-05-06T17:59:58.917Z,2.90
2023-05-06T18:02:01.974Z,2.90
2023-05-06T18:04:04.966Z,2.80
2023-05-06T18:06:08.045Z,2.90
2023-05-06T18:08:12.609Z,2.80
2023-05-06T18:10:15.465Z,2.83
2023-05-06T18:12:18.278Z,3.43
2023-05-06T18:14:21.193Z,3.00
2023-05-06T18:16:24.172Z,3.10
2023-05-06T18:18:27.112Z,3.37
2023-05-06T18:20:30.011Z,3.23
2023-05-06T18:22:32.808Z,3.57
2023-05-06T18:24:37.288Z,3.27
2023-05-06T18:26:45.215Z,3.77
2023-05-06T18:28:48.870Z,5.00
2023-05-06T18:30:51.685Z,5.10
2023-05-06T18:32:56.532Z,5.53
2023-05-06T18:34:59.714Z,5.57
2023-05-06T18:37:02.958Z,6.03
2023-05-06T18:39:06.032Z,6.30
2023-05-06T18:41:10.150Z,6.47
2023-05-06T18:43:13.011Z,6.73
2023-05-06T18:45:16.172Z,6.20
2023-05-06T18:47:19.609Z,6.43
2023-05-06T18:49:23.158Z,7.10
2023-05-06T18:51:26.347Z,7.90
2023-05-06T18:53:29.091Z,7.60
2023-05-06T18:55:31.933Z,7.43
2023-05-06T18:57:36.145Z,7.87
2023-05-06T18:59:38.944Z,8.63
2023-05-06T19:01:41.742Z,8.77
2023-05-06T19:03:44.592Z,9.07
2023-05-06T19:05:47.578Z,8.80
2023-05-06T19:07:50.365Z,9.90
2023-05-06T19:09:53.190Z,10.03
2023-05-06T19:11:56.190Z,10.50
2023-05-06T19:14:00.386Z,11.03
2023-05-06T19:16:03.217Z,12.00
2023-05-06T19:18:06.986Z,10.83
2023-05-06T19:20:11.138Z,11.47
2023-05-06T19:22:13.947Z,11.90
2023-05-06T19:24:16.840Z,12.13
2023-05-06T19:26:19.648Z,12.07
2023-05-06T19:28:22.697Z,11.47
2023-05-06T19:30:27.935Z,14.10
2023-05-06T19:32:32.843Z,12.80
2023-05-06T19:34:35.861Z,13.30
2023-05-06T19:36:38.681Z,13.93
2023-05-06T19:38:41.505Z,14.83
2023-05-06T19:40:44.402Z,13.60
2023-05-06T19:42:47.778Z,14.00
2023-05-06T19:44:50.821Z,13.63
2023-05-06T19:46:55.342Z,14.23
2023-05-06T19:48:58.481Z,13.60
2023-05-06T19:51:01.329Z,14.17
2023-05-06T19:53:04.338Z,12.63
2023-05-06T19:55:08.282Z,13.50
2023-05-06T19:57:11.171Z,13.73
2023-05-06T19:59:14.073Z,14.13
2023-05-06T20:01:17.180Z,15.43
2023-05-06T20:03:21.768Z,15.33
2023-05-06T20:05:24.842Z,15.37
2023-05-06T20:07:27.830Z,15.30
2023-05-06T20:09:30.803Z,15.20
2023-05-06T20:11:33.679Z,14.13
2023-05-06T20:13:36.559Z,14.47
2023-05-06T20:15:39.350Z,15.40
2023-05-06T20:17:42.171Z,14.43
2023-05-06T20:19:46.985Z,14.27
2023-05-06T20:21:49.815Z,15.53
2023-05-06T20:23:53.228Z,15.20
2023-05-06T20:25:56.249Z,15.87
2023-05-06T20:28:00.847Z,14.87
2023-05-06T20:30:04.209Z,14.90
2023-05-06T20:32:07.696Z,15.53
2023-05-06T20:34:10.582Z,16.27
2023-05-06T20:36:15.881Z,16.37
2023-05-06T20:38:19.455Z,16.10
2023-05-06T20:40:22.690Z,16.03
2023-05-06T20:42:25.826Z,16.33
2023-05-06T20:44:28.568Z,14.23
2023-05-06T20:46:32.930Z,15.37
2023-05-06T20:48:36.037Z,15.13
2023-05-06T20:50:38.920Z,15.80
2023-05-06T20:52:43.665Z,16.63
2023-05-06T20:54:46.930Z,15.83
2023-05-06T20:56:49.684Z,14.93
2023-05-06T20:58:53.077Z,15.83
2023-05-06T21:00:57.178Z,16.17
2023-05-06T21:03:00.355Z,16.43
2023-05-06T21:05:03.244Z,16.23
2023-05-06T21:07:05.993Z,15.33
2023-05-06T21:09:10.169Z,16.27
2023-05-06T21:11:12.925Z,15.67
2023-05-06T21:13:15.890Z,16.73
2023-05-06T21:15:18.752Z,16.53
2023-05-06T21:17:21.663Z,16.03
2023-05-06T21:19:24.499Z,17.90
2023-05-06T21:21:30.523Z,17.10
2023-05-06T21:23:35.299Z,16.50
2023-05-06T21:25:39.461Z,17.57
2023-05-06T21:27:42.224Z,17.03
2023-05-06T21:29:45.005Z,17.03
2023-05-06T21:31:47.955Z,15.83
2023-05-06T21:33:55.489Z,17.00
2023-05-06T21:35:58.282Z,17.00
2023-05-06T21:38:01.210Z,16.53
2023-05-06T21:40:04.883Z,16.40
2023-05-06T21:42:09.025Z,16.97
2023-05-06T21:44:11.757Z,17.57
2023-05-06T21:46:14.596Z,16.70
2023-05-06T21:48:17.476Z,16.30
2023-05-06T21:50:20.458Z,15.77
2023-05-06T21:52:23.262Z,18.00
2023-05-06T21:54:26.370Z,17.23
2023-05-06T21:56:29.222Z,16.23
2023-05-06T21:58:33.396Z,16.33
2023-05-06T22:00:36.411Z,18.77
2023-05-06T22:02:39.550Z,17.23
2023-05-06T22:04:42.556Z,17.50
2023-05-06T22:06:45.405Z,17.50
2023-05-06T22:08:48.197Z,18.07
2023-05-06T22:10:51.025Z,19.07
2023-05-06T22:12:53.772Z,18.50
2023-05-06T22:14:58.000Z,19.03
2023-05-06T22:17:01.612Z,18.10
2023-05-06T22:19:05.510Z,18.03
2023-05-06T22:21:09.640Z,18.83
2023-05-06T22:23:12.682Z,20.37
2023-05-06T22:25:15.505Z,20.50
2023-05-06T22:27:18.258Z,19.43
2023-05-06T22:29:20.968Z,21.00
2023-05-06T22:31:25.280Z,21.00
2023-05-06T22:33:28.202Z,20.97
2023-05-06T22:35:31.021Z,22.07
2023-05-06T22:37:33.788Z,21.43
2023-05-06T22:39:36.695Z,21.80
2023-05-06T22:41:39.547Z,21.97
2023-05-06T22:43:42.313Z,21.53
2023-05-06T22:45:45.207Z,21.47
2023-05-06T22:47:49.364Z,22.17
2023-05-06T22:49:52.249Z,22.57
2023-05-06T22:51:55.122Z,24.00
2023-05-06T22:53:57.829Z,24.33
2023-05-06T22:56:00.843Z,24.47
2023-05-06T22:58:03.644Z,23.57
2023-05-06T23:00:08.688Z,22.43
2023-05-06T23:02:11.596Z,23.73
2023-05-06T23:04:15.844Z,25.27
2023-05-06T23:06:18.846Z,24.27
2023-05-06T23:08:21.771Z,26.43
2023-05-06T23:10:24.567Z,24.13
2023-05-06T23:12:28.011Z,23.47
2023-05-06T23:14:30.781Z,24.47
2023-05-06T23:16:33.931Z,24.23
2023-05-06T23:18:36.990Z,22.23
2023-05-06T23:20:42.208Z,22.40
2023-05-06T23:22:45.048Z,22.17
2023-05-06T23:24:47.753Z,22.60
2023-05-06T23:26:50.581Z,22.20
2023-05-06T23:28:53.343Z,22.30
2023-05-06T23:30:56.157Z,22.33
2023-05-06T23:32:59.036Z,22.73
2023-05-06T23:35:02.835Z,23.17
2023-05-06T23:37:07.039Z,22.93
2023-05-06T23:39:12.220Z,21.97
2023-05-06T23:41:15.148Z,21.63
2023-05-06T23:43:17.917Z,22.40
2023-05-06T23:45:21.059Z,22.47
2023-05-06T23:47:24.428Z,21.77
2023-05-06T23:49:27.302Z,22.20
2023-05-06T23:51:30.081Z,22.93
2023-05-06T23:53:36.026Z,23.70
2023-05-06T23:55:39.062Z,20.90
2023-05-06T23:57:41.867Z,21.60
2023-05-06T23:59:44.656Z,22.87
